createdAt,value
2023-03-14T00:03:14.411Z,3.38
2023-03-14T00:13:16.630Z,5.45
2023-03-14T00:23:18.566Z,6.00
2023-03-14T00:33:20.608Z,5.45
2023-03-14T00:43:23.128Z,6.25
2023-03-14T00:53:25.156Z,5.05
2023-03-14T01:03:27.101Z,4.50
2023-03-14T01:13:29.014Z,4.35
2023-03-14T01:23:30.906Z,4.90
2023-03-14T01:33:32.923Z,1.88
2023-03-14T01:43:35.005Z,2.13
2023-03-14T01:53:39.589Z,2.47
2023-03-14T02:15:05.358Z,2.88
2023-03-14T02:25:37.602Z,2.70
2023-03-14T02:36:00.016Z,3.42
2023-03-14T02:46:03.263Z,2.78
2023-03-14T02:56:06.634Z,2.45
2023-03-14T03:06:10.181Z,4.15
2023-03-14T03:16:12.299Z,3.50
2023-03-14T03:26:14.398Z,3.55
2023-03-14T03:36:16.429Z,3.13
2023-03-14T03:46:19.164Z,4.28
2023-03-14T03:56:21.188Z,3.78
2023-03-14T04:06:23.240Z,3.90
2023-03-14T04:16:28.159Z,4.63
2023-03-14T04:26:37.501Z,3.92
2023-03-14T04:36:40.439Z,3.50
2023-03-14T04:46:47.317Z,5.05
2023-03-14T04:56:49.516Z,5.97
2023-03-14T05:06:51.643Z,5.55
2023-03-14T05:17:33.956Z,3.90
2023-03-14T05:27:47.379Z,3.75
2023-03-14T05:38:14.428Z,3.72
2023-03-14T05:48:35.401Z,4.57
2023-03-14T05:58:58.860Z,4.03
2023-03-14T06:09:23.878Z,4.85
2023-03-14T06:19:27.726Z,3.90
2023-03-14T06:29:30.781Z,4.35
2023-03-14T06:39:32.975Z,3.50
2023-03-14T06:49:41.608Z,4.68
2023-03-14T06:59:44.149Z,3.78
2023-03-14T07:09:46.317Z,3.47
2023-03-14T07:19:48.885Z,5.32
2023-03-14T07:29:50.929Z,4.30
2023-03-14T07:39:53.994Z,6.45
2023-03-14T07:50:00.507Z,6.68
2023-03-14T08:00:02.286Z,5.60
2023-03-14T08:10:05.371Z,4.13
2023-03-14T08:20:08.241Z,3.78
2023-03-14T08:30:12.852Z,4.88
2023-03-14T08:40:15.052Z,3.80
2023-03-14T08:50:17.145Z,3.85
2023-03-14T09:00:19.596Z,3.42
2023-03-14T09:10:21.445Z,3.15
2023-03-14T09:20:23.422Z,3.70
2023-03-14T09:30:25.266Z,4.00
2023-03-14T09:40:33.460Z,3.80
2023-03-14T09:50:42.916Z,3.47
2023-03-14T10:10:46.848Z,3.97
2023-03-14T10:20:49.945Z,3.50
2023-03-14T10:30:51.926Z,4.53
2023-03-14T10:40:55.923Z,4.53
2023-03-14T10:51:08.701Z,4.53
2023-03-14T11:01:18.587Z,3.92
2023-03-14T11:11:30.417Z,4.40
2023-03-14T11:22:10.157Z,4.57
2023-03-14T11:32:24.074Z,4.17
2023-03-14T11:42:28.366Z,4.50
2023-03-14T11:52:34.563Z,4.65
2023-03-14T12:03:14.647Z,4.20
2023-03-14T12:13:18.014Z,2.87
2023-03-14T12:23:20.145Z,3.78
2023-03-14T12:33:28.731Z,3.47
2023-03-14T12:43:35.010Z,3.72
2023-03-14T12:53:55.319Z,5.00
2023-03-14T13:04:08.173Z,5.18
2023-03-14T13:14:11.507Z,5.00
2023-03-14T13:24:27.466Z,4.68
2023-03-14T13:34:35.063Z,5.78
2023-03-14T13:44:41.324Z,7.20
2023-03-14T13:54:43.191Z,6.45
2023-03-14T14:04:45.210Z,6.57
2023-03-14T14:15:16.582Z,6.95
2023-03-14T14:25:18.808Z,5.53
2023-03-14T14:35:54.767Z,7.25
2023-03-14T14:45:57.465Z,6.13
2023-03-14T14:56:05.110Z,5.38
2023-03-14T15:06:07.014Z,6.20
2023-03-14T15:16:13.264Z,5.18
2023-03-14T15:26:18.655Z,7.05
2023-03-14T15:36:24.817Z,6.75
2023-03-14T15:46:27.818Z,5.57
2023-03-14T15:56:31.273Z,6.68
2023-03-14T16:06:33.258Z,5.32
2023-03-14T16:16:35.124Z,5.30
2023-03-14T16:26:37.082Z,6.20
2023-03-14T16:36:38.952Z,5.57
2023-03-14T16:46:40.918Z,5.30
2023-03-14T16:56:42.804Z,5.50
2023-03-14T17:06:44.789Z,4.43
2023-03-14T17:16:46.716Z,4.38
2023-03-14T17:26:48.862Z,7.20
2023-03-14T17:36:52.156Z,5.72
2023-03-14T17:46:54.316Z,6.13
2023-03-14T17:56:57.299Z,7.60
2023-03-14T18:07:00.048Z,6.85
2023-03-14T18:17:01.805Z,7.85
2023-03-14T18:27:04.297Z,5.65
2023-03-14T18:37:06.118Z,3.78
2023-03-14T18:47:08.052Z,4.65
2023-03-14T18:57:09.930Z,3.05
2023-03-14T19:07:11.794Z,3.72
2023-03-14T19:17:13.649Z,6.60
2023-03-14T19:27:15.564Z,6.25
2023-03-14T19:37:17.468Z,4.53
2023-03-14T19:47:19.404Z,5.38
2023-03-14T19:57:21.227Z,4.25
2023-03-14T20:07:23.037Z,4.97
2023-03-14T20:17:24.934Z,5.70
2023-03-14T20:27:26.842Z,5.45
2023-03-14T20:37:29.514Z,3.60
2023-03-14T20:47:31.405Z,4.05
2023-03-14T20:57:33.276Z,4.10
2023-03-14T21:07:35.285Z,5.00
2023-03-14T21:17:39.678Z,5.07
2023-03-14T21:27:41.880Z,4.45
2023-03-14T21:37:43.736Z,4.10
2023-03-14T21:47:45.528Z,6.28
2023-03-14T21:57:49.011Z,6.40
2023-03-14T22:07:51.179Z,3.10
2023-03-14T22:17:53.019Z,4.82
2023-03-14T22:27:54.907Z,1.73
2023-03-14T22:37:56.796Z,2.05
2023-03-14T22:47:58.938Z,4.57
2023-03-14T22:58:00.882Z,3.47
2023-03-14T23:08:02.946Z,2.78
2023-03-14T23:18:04.930Z,0.52
2023-03-14T23:28:06.822Z,0.65
2023-03-14T23:38:08.626Z,1.48
2023-03-14T23:48:10.588Z,2.17
2023-03-14T23:58:12.410Z,2.13
